Time,TemperatureF,DewpointF,PressureIn,WindDirection,WindDirectionDegrees,WindSpeedMPH,WindSpeedGustMPH,Humidity,HourlyPrecipIn,Conditions,Clouds,dailyrainin,SolarRadiationWatts/m^2,SoftwareType,DateUTC
2013-03-01 00:00:00,39.7,37.6,29.54,NW,315,2.0,5.0,92,0.00,,,0.01,0.0,meteohub,2013-03-01 05:00:00,
2013-03-01 00:01:00,39.7,37.6,29.54,NW,315,0.0,4.0,92,0.00,,,0.01,0.0,meteohub,2013-03-01 05:01:00,
2013-03-01 00:06:00,39.7,37.6,29.54,NW,315,0.0,4.0,92,0.00,,,0.01,0.0,meteohub,2013-03-01 05:06:00,
2013-03-01 00:07:00,39.7,37.6,29.55,NW,315,0.0,4.0,92,0.00,,,0.01,0.0,meteohub,2013-03-01 05:07:00,
2013-03-01 00:12:00,39.7,37.6,29.55,NW,315,0.0,4.0,92,0.00,,,0.01,0.0,meteohub,2013-03-01 05:12:00,
2013-03-01 00:17:00,39.9,37.8,29.55,NW,315,2.0,4.0,92,0.00,,,0.01,0.0,meteohub,2013-03-01 05:17:00,
2013-03-01 00:22:00,39.9,37.8,29.55,NW,315,5.0,5.0,92,0.00,,,0.01,0.0,meteohub,2013-03-01 05:22:00,
2013-03-01 00:27:00,39.9,37.8,29.55,NW,316,4.0,5.0,92,0.00,,,0.01,0.0,meteohub,2013-03-01 05:27:00,
2013-03-01 00:32:00,39.7,37.6,29.55,NNW,329,2.0,7.0,92,0.00,,,0.01,0.0,meteohub,2013-03-01 05:32:00,
2013-03-01 00:37:00,39.7,37.4,29.55,WNW,296,4.0,7.0,91,0.00,,,0.01,0.0,meteohub,2013-03-01 05:37:00,
2013-03-01 00:42:00,39.7,37.4,29.55,NW,312,5.0,8.0,91,0.00,,,0.01,0.0,meteohub,2013-03-01 05:42:00,
2013-03-01 00:47:00,39.7,37.4,29.55,NNW,330,6.0,8.0,91,0.00,,,0.01,0.0,meteohub,2013-03-01 05:47:00,
2013-03-01 00:52:00,39.7,37.4,29.55,NW,313,2.0,11.0,91,0.00,,,0.01,0.0,meteohub,2013-03-01 05:52:00,
2013-03-01 00:57:00,39.7,37.4,29.55,WNW,300,4.0,11.0,91,0.00,,,0.01,0.0,meteohub,2013-03-01 05:57:00,
2013-03-01 01:02:00,39.7,37.4,29.55,WNW,302,5.0,11.0,91,0.01,,,0.02,0.0,meteohub,2013-03-01 06:02:00,
2013-03-01 01:07:00,39.7,37.0,29.55,NW,325,8.0,9.0,90,0.01,,,0.02,0.0,meteohub,2013-03-01 06:07:00,
2013-03-01 01:12:00,39.7,37.0,29.55,NNW,332,5.0,9.0,90,0.01,,,0.02,0.0,meteohub,2013-03-01 06:12:00,
2013-03-01 01:17:00,39.7,37.0,29.55,NW,325,2.0,9.0,90,0.01,,,0.02,0.0,meteohub,2013-03-01 06:17:00,
2013-03-01 01:22:00,39.7,37.0,29.55,NNW,337,4.0,9.0,90,0.01,,,0.02,0.0,meteohub,2013-03-01 06:22:00,
2013-03-01 01:27:00,39.7,37.0,29.55,NNW,328,2.0,8.0,90,0.01,,,0.02,0.0,meteohub,2013-03-01 06:27:00,
2013-03-01 01:32:00,39.7,37.0,29.55,NNW,336,5.0,8.0,90,0.01,,,0.02,0.0,meteohub,2013-03-01 06:32:00,
2013-03-01 01:37:00,39.7,36.7,29.55,NNW,336,5.0,8.0,89,0.01,,,0.02,0.0,meteohub,2013-03-01 06:37:00,
2013-03-01 01:42:00,39.6,36.5,29.55,NW,321,4.0,7.0,89,0.01,,,0.02,0.0,meteohub,2013-03-01 06:42:00,
2013-03-01 01:47:00,39.6,36.5,29.55,NW,304,4.0,8.0,89,0.01,,,0.02,0.0,meteohub,2013-03-01 06:47:00,
2013-03-01 01:52:00,39.4,36.5,29.55,NW,307,2.0,8.0,89,0.01,,,0.02,0.0,meteohub,2013-03-01 06:52:00,
2013-03-01 01:57:00,39.2,36.3,29.55,NW,309,5.0,8.0,89,0.01,,,0.02,0.0,meteohub,2013-03-01 06:57:00,
2013-03-01 02:02:00,39.0,36.1,29.55,NW,312,4.0,8.0,89,0.00,,,0.02,0.0,meteohub,2013-03-01 07:02:00,
2013-03-01 02:07:00,38.7,35.8,29.55,NW,312,5.0,7.0,89,0.00,,,0.02,0.0,meteohub,2013-03-01 07:07:00,
2013-03-01 02:12:00,38.5,35.6,29.55,NW,320,2.0,7.0,89,0.00,,,0.02,0.0,meteohub,2013-03-01 07:12:00,
2013-03-01 02:17:00,38.5,35.6,29.55,NW,318,4.0,8.0,89,0.00,,,0.02,0.0,meteohub,2013-03-01 07:17:00,
2013-03-01 02:22:00,38.3,35.4,29.55,NW,317,4.0,8.0,89,0.00,,,0.02,0.0,meteohub,2013-03-01 07:22:00,
2013-03-01 02:27:00,38.1,35.2,29.55,NW,311,2.0,7.0,89,0.00,,,0.02,0.0,meteohub,2013-03-01 07:27:00,
2013-03-01 02:32:00,37.9,35.1,29.54,NW,317,4.0,7.0,89,0.00,,,0.02,0.0,meteohub,2013-03-01 07:32:00,
2013-03-01 02:38:00,37.8,34.9,29.54,NW,314,4.0,7.0,89,0.00,,,0.02,0.0,meteohub,2013-03-01 07:38:00,
2013-03-01 02:43:00,37.8,34.9,29.54,NW,313,6.0,7.0,89,0.00,,,0.02,0.0,meteohub,2013-03-01 07:43:00,
2013-03-01 02:48:00,37.6,34.7,29.55,NW,314,0.0,7.0,89,0.00,,,0.02,0.0,meteohub,2013-03-01 07:48:00,
2013-03-01 02:53:00,37.4,34.5,29.55,NW,314,2.0,6.0,89,0.00,,,0.02,0.0,meteohub,2013-03-01 07:53:00,
2013-03-01 02:58:00,37.2,34.3,29.55,NW,314,2.0,6.0,89,0.00,,,0.02,0.0,meteohub,2013-03-01 07:58:00,
2013-03-01 03:03:00,37.0,34.2,29.55,NW,314,4.0,5.0,89,0.00,,,0.02,0.0,meteohub,2013-03-01 08:03:00,
2013-03-01 03:08:00,37.0,34.2,29.55,NW,315,2.0,6.0,89,0.00,,,0.02,0.0,meteohub,2013-03-01 08:08:00,
2013-03-01 03:13:00,36.9,34.0,29.55,NW,316,5.0,7.0,89,0.00,,,0.02,0.0,meteohub,2013-03-01 08:13:00,
2013-03-01 03:18:00,36.9,34.2,29.55,NW,317,4.0,7.0,90,0.00,,,0.02,0.0,meteohub,2013-03-01 08:18:00,
2013-03-01 03:24:00,36.9,34.2,29.55,NW,318,2.0,7.0,90,0.00,,,0.02,0.0,meteohub,2013-03-01 08:24:00,
2013-03-01 03:29:00,36.9,34.0,29.55,NW,318,1.0,7.0,89,0.00,,,0.02,0.0,meteohub,2013-03-01 08:29:00,
2013-03-01 03:34:00,36.7,33.8,29.55,NW,318,0.0,6.0,89,0.00,,,0.02,0.0,meteohub,2013-03-01 08:34:00,
2013-03-01 03:39:00,36.3,33.4,29.55,NW,318,2.0,6.0,89,0.00,,,0.02,0.0,meteohub,2013-03-01 08:39:00,
2013-03-01 03:44:00,36.1,33.4,29.55,NW,318,0.0,4.0,90,0.00,,,0.02,0.0,meteohub,2013-03-01 08:44:00,
2013-03-01 03:49:00,36.0,33.1,29.56,NW,318,0.0,4.0,89,0.00,,,0.02,0.0,meteohub,2013-03-01 08:49:00,
2013-03-01 03:54:00,35.8,33.1,29.56,NW,318,0.0,4.0,90,0.00,,,0.02,0.0,meteohub,2013-03-01 08:54:00,
2013-03-01 03:59:00,35.6,32.9,29.56,NW,318,0.0,4.0,90,0.00,,,0.02,0.0,meteohub,2013-03-01 08:59:00,
2013-03-01 04:05:00,35.4,32.7,29.57,NW,318,0.0,4.0,90,0.00,,,0.02,0.0,meteohub,2013-03-01 09:05:00,
2013-03-01 04:10:00,35.1,32.4,29.57,NW,318,0.0,4.0,90,0.00,,,0.02,0.0,meteohub,2013-03-01 09:10:00,
2013-03-01 04:15:00,34.9,32.2,29.57,NW,318,0.0,0.0,90,0.00,,,0.02,0.0,meteohub,2013-03-01 09:15:00,
2013-03-01 04:20:00,34.9,32.5,29.57,NW,318,0.0,2.0,91,0.00,,,0.02,0.0,meteohub,2013-03-01 09:20:00,
2013-03-01 04:25:00,34.5,31.8,29.57,NW,318,0.0,2.0,90,0.00,,,0.02,0.0,meteohub,2013-03-01 09:25:00,
2013-03-01 04:30:00,34.3,32.0,29.57,NW,318,2.0,2.0,91,0.00,,,0.02,0.0,meteohub,2013-03-01 09:30:00,
2013-03-01 04:35:00,34.5,32.2,29.57,NW,318,2.0,4.0,91,0.00,,,0.02,0.0,meteohub,2013-03-01 09:35:00,
2013-03-01 04:41:00,34.3,32.0,29.58,NW,318,0.0,4.0,91,0.00,,,0.02,0.0,meteohub,2013-03-01 09:41:00,
2013-03-01 04:46:00,34.0,31.6,29.58,NW,318,0.0,4.0,91,0.00,,,0.02,0.0,meteohub,2013-03-01 09:46:00,
2013-03-01 04:51:00,34.0,31.6,29.58,NW,318,2.0,2.0,91,0.00,,,0.02,0.0,meteohub,2013-03-01 09:51:00,
2013-03-01 04:56:00,34.2,32.0,29.59,NW,319,5.0,5.0,92,0.00,,,0.02,0.0,meteohub,2013-03-01 09:56:00,
2013-03-01 05:01:00,34.5,32.4,29.59,NNW,342,5.0,7.0,92,0.00,,,0.02,0.0,meteohub,2013-03-01 10:01:00,
2013-03-01 05:06:00,34.9,32.7,29.59,North,355,5.0,7.0,92,0.00,,,0.02,0.0,meteohub,2013-03-01 10:06:00,
2013-03-01 05:11:00,35.2,33.1,29.59,North,355,0.0,7.0,92,0.00,,,0.02,0.0,meteohub,2013-03-01 10:11:00,
2013-03-01 05:17:00,35.2,32.9,29.59,North,351,4.0,7.0,91,0.00,,,0.02,0.0,meteohub,2013-03-01 10:17:00,
2013-03-01 05:22:00,35.2,32.9,29.59,North,351,4.0,6.0,91,0.00,,,0.02,0.0,meteohub,2013-03-01 10:22:00,
2013-03-01 05:27:00,35.1,32.7,29.59,NNW,337,2.0,5.0,91,0.00,,,0.02,0.0,meteohub,2013-03-01 10:27:00,
2013-03-01 05:32:00,35.1,32.7,29.59,NW,322,2.0,5.0,91,0.00,,,0.02,0.0,meteohub,2013-03-01 10:32:00,
2013-03-01 05:37:00,35.1,32.7,29.59,NW,322,2.0,6.0,91,0.00,,,0.02,0.0,meteohub,2013-03-01 10:37:00,
2013-03-01 05:42:00,35.1,32.7,29.59,NW,322,0.0,6.0,91,0.00,,,0.02,0.0,meteohub,2013-03-01 10:42:00,
2013-03-01 05:47:00,35.1,32.4,29.59,NW,322,2.0,5.0,90,0.00,,,0.02,0.0,meteohub,2013-03-01 10:47:00,
2013-03-01 05:52:00,34.9,32.2,29.59,NW,322,2.0,5.0,90,0.00,,,0.02,0.0,meteohub,2013-03-01 10:52:00,
2013-03-01 05:57:00,34.5,31.8,29.59,NW,322,2.0,4.0,90,0.00,,,0.02,0.0,meteohub,2013-03-01 10:57:00,
2013-03-01 06:02:00,34.3,31.6,29.60,NW,322,4.0,4.0,90,0.00,,,0.02,0.0,meteohub,2013-03-01 11:02:00,
2013-03-01 06:07:00,34.3,32.0,29.59,NNW,340,5.0,6.0,91,0.00,,,0.02,0.0,meteohub,2013-03-01 11:07:00,
2013-03-01 06:12:00,34.5,32.2,29.59,WNW,298,5.0,8.0,91,0.00,,,0.02,0.0,meteohub,2013-03-01 11:12:00,
2013-03-01 06:17:00,34.9,32.5,29.59,NNW,332,7.0,8.0,91,0.00,,,0.02,0.0,meteohub,2013-03-01 11:17:00,
2013-03-01 06:22:00,35.1,32.7,29.59,NW,323,5.0,8.0,91,0.00,,,0.02,0.0,meteohub,2013-03-01 11:22:00,
2013-03-01 06:27:00,35.2,32.5,29.59,NNW,346,5.0,8.0,90,0.00,,,0.02,0.0,meteohub,2013-03-01 11:27:00,
2013-03-01 06:32:00,35.4,32.7,29.59,North,0,5.0,8.0,90,0.00,,,0.02,7.0,meteohub,2013-03-01 11:32:00,
2013-03-01 06:37:00,35.8,33.1,29.60,North,0,4.0,9.0,90,0.00,,,0.02,11.0,meteohub,2013-03-01 11:37:00,
2013-03-01 06:42:00,36.0,33.1,29.60,NNW,345,7.0,9.0,89,0.00,,,0.02,12.0,meteohub,2013-03-01 11:42:00,
2013-03-01 06:47:00,36.1,33.3,29.60,NNW,330,5.0,9.0,89,0.00,,,0.02,18.0,meteohub,2013-03-01 11:47:00,
2013-03-01 06:52:00,36.5,33.6,29.60,NNW,341,6.0,9.0,89,0.00,,,0.02,30.0,meteohub,2013-03-01 11:52:00,
2013-03-01 06:57:00,36.7,33.4,29.60,NW,316,5.0,9.0,88,0.00,,,0.02,33.0,meteohub,2013-03-01 11:57:00,
2013-03-01 07:02:00,36.9,33.4,29.60,NNW,344,5.0,10.0,87,0.00,,,0.02,42.0,meteohub,2013-03-01 12:02:00,
2013-03-01 07:07:00,37.0,33.6,29.60,NNW,336,4.0,10.0,87,0.00,,,0.02,44.0,meteohub,2013-03-01 12:07:00,
2013-03-01 07:12:00,37.2,33.8,29.61,North,350,4.0,10.0,87,0.00,,,0.02,51.0,meteohub,2013-03-01 12:12:00,
2013-03-01 07:17:00,37.6,33.8,29.61,North,0,3.0,10.0,86,0.00,,,0.02,58.0,meteohub,2013-03-01 12:17:00,
2013-03-01 07:22:00,37.8,34.0,29.61,North,5,7.0,10.0,86,0.00,,,0.02,54.0,meteohub,2013-03-01 12:22:00,
2013-03-01 07:27:00,37.9,33.8,29.62,NW,326,8.0,10.0,85,0.00,,,0.02,62.0,meteohub,2013-03-01 12:27:00,
2013-03-01 07:32:00,37.9,33.8,29.62,North,9,3.0,10.0,85,0.00,,,0.02,67.0,meteohub,2013-03-01 12:32:00,
2013-03-01 07:37:00,38.5,34.3,29.62,North,350,4.0,12.0,85,0.00,,,0.02,90.0,meteohub,2013-03-01 12:37:00,
2013-03-01 07:42:00,38.8,34.7,29.62,NW,316,4.0,12.0,85,0.00,,,0.02,109.0,meteohub,2013-03-01 12:42:00,
2013-03-01 07:47:00,39.0,34.5,29.62,North,0,5.0,12.0,84,0.00,,,0.02,111.0,meteohub,2013-03-01 12:47:00,
2013-03-01 07:52:00,39.4,34.9,29.62,NNW,330,10.0,12.0,84,0.00,,,0.02,206.0,meteohub,2013-03-01 12:52:00,
2013-03-01 07:57:00,39.7,35.1,29.62,NW,317,7.0,13.0,83,0.00,,,0.02,113.0,meteohub,2013-03-01 12:57:00,
2013-03-01 08:02:00,39.9,35.2,29.62,NNW,347,9.0,13.0,83,0.00,,,0.02,95.0,meteohub,2013-03-01 13:02:00,
2013-03-01 08:07:00,39.9,34.9,29.63,WNW,290,6.0,13.0,82,0.00,,,0.02,91.0,meteohub,2013-03-01 13:07:00,
2013-03-01 08:12:00,39.9,34.9,29.63,NW,314,7.0,12.0,82,0.00,,,0.02,98.0,meteohub,2013-03-01 13:12:00,
2013-03-01 08:17:00,39.7,34.7,29.63,North,11,6.0,12.0,82,0.00,,,0.02,113.0,meteohub,2013-03-01 13:17:00,
2013-03-01 08:22:00,39.9,35.2,29.63,North,355,7.0,12.0,83,0.00,,,0.02,151.0,meteohub,2013-03-01 13:22:00,
2013-03-01 08:27:00,40.3,35.6,29.63,NNW,336,6.0,12.0,83,0.00,,,0.02,179.0,meteohub,2013-03-01 13:27:00,
2013-03-01 08:32:00,40.6,35.6,29.63,NNW,347,6.0,12.0,82,0.00,,,0.02,174.0,meteohub,2013-03-01 13:32:00,
2013-03-01 08:37:00,41.0,36.0,29.63,North,355,5.0,12.0,82,0.00,,,0.02,172.0,meteohub,2013-03-01 13:37:00,
2013-03-01 08:42:00,41.4,36.0,29.63,NNE,17,6.0,16.0,81,0.00,,,0.02,181.0,meteohub,2013-03-01 13:42:00,
2013-03-01 08:47:00,41.4,36.0,29.63,NW,320,7.0,16.0,81,0.00,,,0.02,163.0,meteohub,2013-03-01 13:47:00,
2013-03-01 08:52:00,41.5,35.8,29.63,NNW,329,7.0,16.0,80,0.00,,,0.02,186.0,meteohub,2013-03-01 13:52:00,
2013-03-01 08:57:00,41.5,35.8,29.63,NW,313,4.0,14.0,80,0.00,,,0.02,178.0,meteohub,2013-03-01 13:57:00,
2013-03-01 09:02:00,41.5,35.6,29.63,NW,316,7.0,12.0,79,0.00,,,0.02,211.0,meteohub,2013-03-01 14:02:00,
2013-03-01 09:07:00,42.1,36.0,29.63,NW,312,9.0,10.0,79,0.00,,,0.02,265.0,meteohub,2013-03-01 14:07:00,
2013-03-01 09:12:00,42.3,36.0,29.63,WNW,296,8.0,15.0,78,0.00,,,0.02,244.0,meteohub,2013-03-01 14:12:00,
2013-03-01 09:17:00,42.4,35.4,29.64,NE,36,6.0,17.0,76,0.00,,,0.02,279.0,meteohub,2013-03-01 14:17:00,
2013-03-01 09:22:00,43.0,36.0,29.64,NNW,348,4.0,17.0,76,0.00,,,0.02,265.0,meteohub,2013-03-01 14:22:00,
2013-03-01 09:27:00,43.2,36.1,29.64,North,351,6.0,15.0,76,0.00,,,0.02,225.0,meteohub,2013-03-01 14:27:00,
2013-03-01 09:32:00,43.2,35.8,29.64,NW,319,13.0,14.0,75,0.00,,,0.02,216.0,meteohub,2013-03-01 14:32:00,
2013-03-01 09:37:00,43.2,35.4,29.64,NNE,15,7.0,18.0,74,0.00,,,0.02,214.0,meteohub,2013-03-01 14:37:00,
2013-03-01 09:42:00,43.2,35.4,29.64,NW,325,9.0,18.0,74,0.00,,,0.02,218.0,meteohub,2013-03-01 14:42:00,
2013-03-01 09:47:00,43.3,35.6,29.64,North,355,8.0,18.0,74,0.00,,,0.02,223.0,meteohub,2013-03-01 14:47:00,
2013-03-01 09:52:00,43.5,35.4,29.64,North,0,4.0,16.0,73,0.00,,,0.02,257.0,meteohub,2013-03-01 14:52:00,
2013-03-01 09:57:00,43.9,35.4,29.64,NW,317,13.0,16.0,72,0.00,,,0.02,265.0,meteohub,2013-03-01 14:57:00,
2013-03-01 10:02:00,43.7,34.9,29.64,NNW,337,11.0,16.0,71,0.00,,,0.02,241.0,meteohub,2013-03-01 15:02:00,
2013-03-01 10:07:00,43.5,34.7,29.64,North,0,7.0,22.0,71,0.00,,,0.02,237.0,meteohub,2013-03-01 15:07:00,
2013-03-01 10:12:00,43.3,34.5,29.65,WNW,303,13.0,22.0,71,0.00,,,0.02,236.0,meteohub,2013-03-01 15:12:00,
2013-03-01 10:17:00,43.3,34.9,29.65,North,11,6.0,22.0,72,0.00,,,0.02,250.0,meteohub,2013-03-01 15:17:00,
2013-03-01 10:22:00,43.5,35.1,29.65,North,5,6.0,17.0,72,0.00,,,0.02,274.0,meteohub,2013-03-01 15:22:00,
2013-03-01 10:27:00,43.9,35.1,29.65,North,11,7.0,17.0,71,0.00,,,0.02,288.0,meteohub,2013-03-01 15:27:00,
2013-03-01 10:32:00,44.1,34.9,29.65,NW,307,9.0,16.0,70,0.00,,,0.02,287.0,meteohub,2013-03-01 15:32:00,
2013-03-01 10:37:00,44.2,35.1,29.65,North,0,7.0,14.0,70,0.00,,,0.02,271.0,meteohub,2013-03-01 15:37:00,
2013-03-01 10:42:00,44.2,34.7,29.65,NNW,344,6.0,14.0,69,0.00,,,0.02,281.0,meteohub,2013-03-01 15:42:00,
2013-03-01 10:47:00,44.6,34.7,29.65,North,0,6.0,14.0,68,0.00,,,0.02,295.0,meteohub,2013-03-01 15:47:00,
2013-03-01 10:52:00,44.8,34.5,29.65,North,5,10.0,13.0,67,0.00,,,0.02,315.0,meteohub,2013-03-01 15:52:00,
2013-03-01 10:57:00,45.3,35.1,29.65,NW,305,5.0,13.0,67,0.00,,,0.02,341.0,meteohub,2013-03-01 15:57:00,
2013-03-01 11:02:00,45.3,34.3,29.65,North,0,5.0,13.0,65,0.00,,,0.02,360.0,meteohub,2013-03-01 16:02:00,
2013-03-01 11:07:00,45.1,34.2,29.65,NW,309,6.0,14.0,65,0.00,,,0.02,376.0,meteohub,2013-03-01 16:07:00,
2013-03-01 11:12:00,45.7,34.2,29.65,NNW,331,8.0,15.0,64,0.00,,,0.02,343.0,meteohub,2013-03-01 16:12:00,
2013-03-01 11:17:00,45.9,34.3,29.65,NNE,26,9.0,15.0,64,0.00,,,0.02,322.0,meteohub,2013-03-01 16:17:00,
2013-03-01 11:22:00,46.0,34.5,29.65,NNW,343,5.0,15.0,64,0.00,,,0.02,336.0,meteohub,2013-03-01 16:22:00,
2013-03-01 11:27:00,45.9,34.0,29.65,WNW,302,8.0,14.0,63,0.00,,,0.02,413.0,meteohub,2013-03-01 16:27:00,
2013-03-01 11:32:00,45.9,34.0,29.65,NNW,328,12.0,14.0,63,0.00,,,0.02,418.0,meteohub,2013-03-01 16:32:00,
2013-03-01 11:37:00,46.2,34.3,29.65,WNW,286,11.0,19.0,63,0.00,,,0.02,406.0,meteohub,2013-03-01 16:37:00,
2013-03-01 11:42:00,46.8,34.0,29.65,NNW,342,4.0,19.0,61,0.00,,,0.02,506.0,meteohub,2013-03-01 16:42:00,
2013-03-01 11:47:00,48.0,35.2,29.65,North,0,10.0,19.0,61,0.00,,,0.02,439.0,meteohub,2013-03-01 16:47:00,
2013-03-01 11:52:00,47.8,34.2,29.65,NNW,330,8.0,13.0,59,0.00,,,0.02,392.0,meteohub,2013-03-01 16:52:00,
2013-03-01 11:57:00,47.5,33.4,29.65,West,280,2.0,14.0,58,0.00,,,0.02,390.0,meteohub,2013-03-01 16:57:00,
2013-03-01 12:02:00,47.3,33.3,29.65,NNW,337,10.0,14.0,58,0.00,,,0.02,411.0,meteohub,2013-03-01 17:02:00,
2013-03-01 12:07:00,47.5,33.4,29.65,NW,304,13.0,14.0,58,0.00,,,0.02,425.0,meteohub,2013-03-01 17:07:00,
2013-03-01 12:12:00,47.8,33.3,29.65,NNW,337,8.0,14.0,57,0.00,,,0.02,439.0,meteohub,2013-03-01 17:12:00,
2013-03-01 12:17:00,48.6,33.6,29.64,NNE,16,3.0,14.0,56,0.00,,,0.02,580.0,meteohub,2013-03-01 17:17:00,
2013-03-01 12:22:00,48.9,34.0,29.64,NNW,340,9.0,13.0,56,0.00,,,0.02,401.0,meteohub,2013-03-01 17:22:00,
2013-03-01 12:27:00,48.6,33.1,29.64,NW,319,11.0,13.0,55,0.00,,,0.02,401.0,meteohub,2013-03-01 17:27:00,
2013-03-01 12:32:00,48.9,33.4,29.64,NNW,338,10.0,13.0,55,0.00,,,0.02,584.0,meteohub,2013-03-01 17:32:00,
2013-03-01 12:37:00,49.5,33.1,29.63,NNW,333,12.0,13.0,53,0.00,,,0.02,742.0,meteohub,2013-03-01 17:37:00,
2013-03-01 12:42:00,49.3,32.9,29.63,NNW,328,7.0,17.0,53,0.00,,,0.02,450.0,meteohub,2013-03-01 17:42:00,
2013-03-01 12:47:00,49.3,33.3,29.63,NNW,331,11.0,17.0,54,0.00,,,0.02,543.0,meteohub,2013-03-01 17:47:00,
2013-03-01 12:52:00,49.6,32.7,29.63,NW,325,5.0,18.0,52,0.00,,,0.02,438.0,meteohub,2013-03-01 17:52:00,
2013-03-01 12:57:00,50.5,33.1,29.63,WNW,300,5.0,18.0,51,0.00,,,0.02,710.0,meteohub,2013-03-01 17:57:00,
2013-03-01 13:02:00,50.9,32.9,29.63,NW,314,8.0,16.0,50,0.00,,,0.02,724.0,meteohub,2013-03-01 18:02:00,
2013-03-01 13:07:00,51.6,33.6,29.63,North,5,4.0,20.0,50,0.00,,,0.02,802.0,meteohub,2013-03-01 18:07:00,
2013-03-01 13:12:00,52.2,33.6,29.63,NNW,330,6.0,20.0,49,0.00,,,0.02,868.0,meteohub,2013-03-01 18:12:00,
2013-03-01 13:17:00,50.4,32.4,29.62,NW,315,8.0,20.0,50,0.00,,,0.02,316.0,meteohub,2013-03-01 18:17:00,
2013-03-01 13:22:00,49.5,32.0,29.62,NW,315,4.0,16.0,51,0.00,,,0.02,369.0,meteohub,2013-03-01 18:22:00,
2013-03-01 13:27:00,49.8,32.0,29.62,WNW,303,8.0,16.0,50,0.00,,,0.02,313.0,meteohub,2013-03-01 18:27:00,
2013-03-01 13:32:00,49.5,31.6,29.62,NNW,328,10.0,15.0,50,0.00,,,0.02,290.0,meteohub,2013-03-01 18:32:00,
2013-03-01 13:37:00,48.9,32.0,29.62,WNW,302,11.0,17.0,52,0.00,,,0.02,230.0,meteohub,2013-03-01 18:37:00,
2013-03-01 13:42:00,49.5,32.0,29.62,NE,44,6.0,17.0,51,0.00,,,0.02,185.0,meteohub,2013-03-01 18:42:00,
2013-03-01 13:47:00,49.1,31.8,29.62,NW,326,10.0,15.0,51,0.00,,,0.02,176.0,meteohub,2013-03-01 18:47:00,
2013-03-01 13:52:00,48.7,30.9,29.62,NNW,329,5.0,15.0,50,0.00,,,0.02,225.0,meteohub,2013-03-01 18:52:00,
2013-03-01 13:57:00,49.3,31.5,29.62,WSW,238,3.0,15.0,50,0.00,,,0.02,241.0,meteohub,2013-03-01 18:57:00,
2013-03-01 14:02:00,49.3,31.5,29.62,NW,325,7.0,14.0,50,0.00,,,0.02,262.0,meteohub,2013-03-01 19:02:00,
2013-03-01 14:07:00,49.6,30.7,29.62,NNW,330,1.0,19.0,48,0.00,,,0.02,737.0,meteohub,2013-03-01 19:07:00,
2013-03-01 14:12:00,51.8,31.1,29.62,WNW,298,6.0,19.0,45,0.00,,,0.02,677.0,meteohub,2013-03-01 19:12:00,
2013-03-01 14:17:00,51.8,30.0,29.62,NNE,24,9.0,19.0,43,0.00,,,0.02,169.0,meteohub,2013-03-01 19:17:00,
2013-03-01 14:22:00,50.4,29.8,29.62,North,5,9.0,16.0,45,0.00,,,0.02,139.0,meteohub,2013-03-01 19:22:00,
2013-03-01 14:27:00,49.3,29.8,29.62,NW,317,10.0,16.0,47,0.00,,,0.02,123.0,meteohub,2013-03-01 19:27:00,
2013-03-01 14:32:00,48.4,29.7,29.62,NW,307,6.0,16.0,48,0.00,,,0.02,121.0,meteohub,2013-03-01 19:32:00,
2013-03-01 14:37:00,48.0,29.8,29.63,NNW,345,5.0,16.0,49,0.00,,,0.02,130.0,meteohub,2013-03-01 19:37:00,
2013-03-01 14:42:00,47.5,29.3,29.62,NW,306,15.0,16.0,49,0.00,,,0.02,146.0,meteohub,2013-03-01 19:42:00,
2013-03-01 14:47:00,47.1,29.5,29.63,NW,313,6.0,15.0,50,0.00,,,0.02,135.0,meteohub,2013-03-01 19:47:00,
2013-03-01 14:52:00,47.1,29.8,29.63,NW,314,8.0,16.0,51,0.00,,,0.02,116.0,meteohub,2013-03-01 19:52:00,
2013-03-01 14:57:00,46.8,30.0,29.63,North,355,8.0,20.0,52,0.00,,,0.02,116.0,meteohub,2013-03-01 19:57:00,
2013-03-01 15:02:00,46.6,29.8,29.63,NNW,332,13.0,22.0,52,0.00,,,0.02,139.0,meteohub,2013-03-01 20:02:00,
2013-03-01 15:07:00,46.2,30.0,29.63,WNW,286,12.0,22.0,53,0.00,,,0.02,141.0,meteohub,2013-03-01 20:07:00,
2013-03-01 15:12:00,46.2,29.5,29.63,NNW,345,8.0,22.0,52,0.00,,,0.02,146.0,meteohub,2013-03-01 20:12:00,
2013-03-01 15:17:00,46.2,29.5,29.63,North,5,8.0,15.0,52,0.00,,,0.02,148.0,meteohub,2013-03-01 20:17:00,
2013-03-01 15:22:00,46.0,28.9,29.63,NW,315,10.0,15.0,51,0.00,,,0.02,142.0,meteohub,2013-03-01 20:22:00,
2013-03-01 15:27:00,46.0,28.4,29.63,NNW,341,14.0,15.0,50,0.00,,,0.02,116.0,meteohub,2013-03-01 20:27:00,
2013-03-01 15:32:00,45.9,28.8,29.63,North,350,9.0,17.0,51,0.00,,,0.02,109.0,meteohub,2013-03-01 20:32:00,
2013-03-01 15:37:00,45.9,28.8,29.63,WNW,303,14.0,17.0,51,0.00,,,0.02,104.0,meteohub,2013-03-01 20:37:00,
2013-03-01 15:42:00,45.9,28.8,29.64,NNW,329,7.0,16.0,51,0.00,,,0.02,100.0,meteohub,2013-03-01 20:42:00,
2013-03-01 15:47:00,45.7,28.6,29.64,NW,317,9.0,16.0,51,0.00,,,0.02,97.0,meteohub,2013-03-01 20:47:00,
2013-03-01 15:52:00,45.7,28.6,29.64,NW,312,7.0,15.0,51,0.00,,,0.02,90.0,meteohub,2013-03-01 20:52:00,
2013-03-01 15:57:00,45.9,28.8,29.64,NNW,334,9.0,13.0,51,0.00,,,0.02,90.0,meteohub,2013-03-01 20:57:00,
2013-03-01 16:02:00,45.7,29.1,29.64,NNE,17,7.0,13.0,52,0.00,,,0.02,93.0,meteohub,2013-03-01 21:02:00,
2013-03-01 16:07:00,45.9,29.3,29.64,NW,311,6.0,12.0,52,0.00,,,0.02,90.0,meteohub,2013-03-01 21:07:00,
2013-03-01 16:12:00,45.9,29.3,29.64,North,5,4.0,12.0,52,0.00,,,0.02,81.0,meteohub,2013-03-01 21:12:00,
2013-03-01 16:17:00,45.9,29.7,29.64,NW,325,8.0,12.0,53,0.00,,,0.02,74.0,meteohub,2013-03-01 21:17:00,
2013-03-01 16:22:00,45.7,29.1,29.65,North,0,5.0,12.0,52,0.00,,,0.02,65.0,meteohub,2013-03-01 21:22:00,
2013-03-01 16:27:00,45.3,29.7,29.64,NNE,20,5.0,12.0,54,0.00,,,0.02,58.0,meteohub,2013-03-01 21:27:00,
2013-03-01 16:32:00,45.0,29.3,29.64,NNW,344,5.0,10.0,54,0.00,,,0.02,62.0,meteohub,2013-03-01 21:32:00,
2013-03-01 16:37:00,44.8,29.7,29.64,North,0,4.0,10.0,55,0.00,,,0.02,49.0,meteohub,2013-03-01 21:37:00,
2013-03-01 16:42:00,44.4,29.3,29.65,NNE,15,4.0,12.0,55,0.00,,,0.02,42.0,meteohub,2013-03-01 21:42:00,
2013-03-01 16:47:00,44.4,29.3,29.65,North,5,3.0,12.0,55,0.00,,,0.02,46.0,meteohub,2013-03-01 21:47:00,
2013-03-01 16:52:00,44.1,28.9,29.65,NNW,338,6.0,11.0,55,0.00,,,0.02,58.0,meteohub,2013-03-01 21:52:00,
2013-03-01 16:57:00,44.1,29.3,29.65,NNW,346,6.0,11.0,56,0.00,,,0.02,44.0,meteohub,2013-03-01 21:57:00,
2013-03-01 17:02:00,43.9,29.7,29.65,NW,317,11.0,13.0,57,0.00,,,0.02,33.0,meteohub,2013-03-01 22:02:00,
2013-03-01 17:07:00,43.9,29.7,29.65,North,349,6.0,13.0,57,0.00,,,0.02,28.0,meteohub,2013-03-01 22:07:00,
2013-03-01 17:12:00,43.7,29.5,29.65,NNW,329,6.0,13.0,57,0.00,,,0.02,21.0,meteohub,2013-03-01 22:12:00,
2013-03-01 17:17:00,43.7,29.8,29.65,North,11,6.0,13.0,58,0.00,,,0.02,16.0,meteohub,2013-03-01 22:17:00,
2013-03-01 17:22:00,43.7,29.8,29.66,NNE,17,5.0,10.0,58,0.00,,,0.02,11.0,meteohub,2013-03-01 22:22:00,
2013-03-01 17:27:00,43.5,29.7,29.66,NNW,327,2.0,10.0,58,0.00,,,0.02,7.0,meteohub,2013-03-01 22:27:00,
2013-03-01 17:32:00,43.5,29.7,29.66,North,355,6.0,10.0,58,0.00,,,0.02,5.0,meteohub,2013-03-01 22:32:00,
2013-03-01 17:37:00,43.3,29.5,29.66,NW,322,4.0,11.0,58,0.00,,,0.02,0.0,meteohub,2013-03-01 22:37:00,
2013-03-01 17:42:00,43.3,29.5,29.67,NNW,335,6.0,11.0,58,0.00,,,0.02,0.0,meteohub,2013-03-01 22:42:00,
2013-03-01 17:47:00,43.2,29.3,29.67,NNW,344,6.0,13.0,58,0.00,,,0.02,0.0,meteohub,2013-03-01 22:47:00,
2013-03-01 17:52:00,43.2,29.8,29.67,NW,319,6.0,13.0,59,0.00,,,0.02,0.0,meteohub,2013-03-01 22:52:00,
2013-03-01 17:57:00,43.0,29.7,29.67,North,355,6.0,16.0,59,0.00,,,0.02,0.0,meteohub,2013-03-01 22:57:00,
2013-03-01 18:02:00,42.8,29.5,29.67,NNW,348,12.0,17.0,59,0.00,,,0.02,0.0,meteohub,2013-03-01 23:02:00,
2013-03-01 18:07:00,42.6,29.7,29.68,NNW,338,6.0,19.0,60,0.00,,,0.02,0.0,meteohub,2013-03-01 23:07:00,
2013-03-01 18:12:00,42.6,29.7,29.68,WNW,298,14.0,19.0,60,0.00,,,0.02,0.0,meteohub,2013-03-01 23:12:00,
2013-03-01 18:17:00,42.4,29.5,29.68,NW,307,7.0,19.0,60,0.00,,,0.02,0.0,meteohub,2013-03-01 23:17:00,
2013-03-01 18:22:00,42.3,29.8,29.68,North,350,7.0,18.0,61,0.00,,,0.02,0.0,meteohub,2013-03-01 23:22:00,
2013-03-01 18:27:00,42.3,29.8,29.68,NNW,333,7.0,15.0,61,0.00,,,0.02,0.0,meteohub,2013-03-01 23:27:00,
2013-03-01 18:32:00,42.1,30.0,29.68,NNW,348,10.0,13.0,62,0.00,,,0.02,0.0,meteohub,2013-03-01 23:32:00,
2013-03-01 18:37:00,42.1,30.0,29.68,NNW,341,7.0,17.0,62,0.00,,,0.02,0.0,meteohub,2013-03-01 23:37:00,
2013-03-01 18:42:00,41.9,29.8,29.69,NW,315,9.0,17.0,62,0.00,,,0.02,0.0,meteohub,2013-03-01 23:42:00,
2013-03-01 18:47:00,41.7,30.0,29.69,NW,314,7.0,17.0,63,0.00,,,0.02,0.0,meteohub,2013-03-01 23:47:00,
2013-03-01 18:52:00,41.7,30.0,29.69,NNW,329,6.0,12.0,63,0.00,,,0.02,0.0,meteohub,2013-03-01 23:52:00,
2013-03-01 18:57:00,41.5,29.8,29.69,NNW,331,8.0,12.0,63,0.00,,,0.02,0.0,meteohub,2013-03-01 23:57:00,
2013-03-01 19:02:00,41.5,30.2,29.69,NW,324,2.0,12.0,64,0.00,,,0.02,0.0,meteohub,2013-03-02 00:02:00,
2013-03-01 19:07:00,41.4,30.0,29.69,NNW,334,8.0,12.0,64,0.00,,,0.00,0.0,meteohub,2013-03-02 00:07:00,
2013-03-01 19:12:00,41.4,30.6,29.69,NNW,331,11.0,13.0,65,0.00,,,0.00,0.0,meteohub,2013-03-02 00:12:00,
2013-03-01 19:17:00,41.4,30.6,29.69,NNW,340,9.0,13.0,65,0.00,,,0.00,0.0,meteohub,2013-03-02 00:17:00,
2013-03-01 19:22:00,41.2,30.7,29.69,NW,311,4.0,13.0,66,0.00,,,0.00,0.0,meteohub,2013-03-02 00:22:00,
2013-03-01 19:27:00,41.2,30.7,29.69,North,11,5.0,13.0,66,0.00,,,0.00,0.0,meteohub,2013-03-02 00:27:00,
2013-03-01 19:32:00,41.0,30.6,29.69,NW,317,7.0,13.0,66,0.00,,,0.00,0.0,meteohub,2013-03-02 00:32:00,
2013-03-01 19:37:00,41.0,30.6,29.70,NW,308,7.0,13.0,66,0.00,,,0.00,0.0,meteohub,2013-03-02 00:37:00,
2013-03-01 19:42:00,40.8,30.4,29.70,NNW,342,10.0,14.0,66,0.00,,,0.00,0.0,meteohub,2013-03-02 00:42:00,
2013-03-01 19:47:00,40.8,30.7,29.69,NW,323,5.0,14.0,67,0.00,,,0.00,0.0,meteohub,2013-03-02 00:47:00,
2013-03-01 19:53:00,40.8,30.7,29.70,NNW,329,8.0,14.0,67,0.00,,,0.00,0.0,meteohub,2013-03-02 00:53:00,
2013-03-01 19:58:00,40.6,30.6,29.69,NNW,327,7.0,14.0,67,0.00,,,0.00,0.0,meteohub,2013-03-02 00:58:00,
2013-03-01 20:03:00,40.6,30.6,29.69,NNW,336,5.0,14.0,67,0.00,,,0.00,0.0,meteohub,2013-03-02 01:03:00,
2013-03-01 20:08:00,40.6,30.6,29.70,NW,325,12.0,12.0,67,0.00,,,0.00,0.0,meteohub,2013-03-02 01:08:00,
2013-03-01 20:13:00,40.5,30.4,29.70,NW,311,9.0,14.0,67,0.00,,,0.00,0.0,meteohub,2013-03-02 01:13:00,
2013-03-01 20:18:00,40.5,30.7,29.70,NNW,348,2.0,16.0,68,0.00,,,0.00,0.0,meteohub,2013-03-02 01:18:00,
2013-03-01 20:23:00,40.5,30.7,29.70,NNW,335,10.0,16.0,68,0.00,,,0.00,0.0,meteohub,2013-03-02 01:23:00,
2013-03-01 20:29:00,40.3,30.6,29.70,NNW,341,6.0,15.0,68,0.00,,,0.00,0.0,meteohub,2013-03-02 01:29:00,
2013-03-01 20:34:00,40.3,30.9,29.70,NW,313,4.0,15.0,69,0.00,,,0.00,0.0,meteohub,2013-03-02 01:34:00,
2013-03-01 20:39:00,40.3,30.9,29.70,NW,321,9.0,13.0,69,0.00,,,0.00,0.0,meteohub,2013-03-02 01:39:00,
2013-03-01 20:44:00,40.3,30.9,29.70,NNW,327,11.0,11.0,69,0.00,,,0.00,0.0,meteohub,2013-03-02 01:44:00,
2013-03-01 20:49:00,40.3,30.9,29.70,North,355,8.0,12.0,69,0.00,,,0.00,0.0,meteohub,2013-03-02 01:49:00,
2013-03-01 20:54:00,40.3,30.9,29.71,NNW,344,9.0,13.0,69,0.00,,,0.00,0.0,meteohub,2013-03-02 01:54:00,
2013-03-01 20:59:00,40.1,30.7,29.71,NNW,329,6.0,13.0,69,0.00,,,0.00,0.0,meteohub,2013-03-02 01:59:00,
2013-03-01 21:05:00,39.9,30.6,29.71,NW,319,7.0,13.0,69,0.00,,,0.00,0.0,meteohub,2013-03-02 02:05:00,
2013-03-01 21:10:00,39.9,30.9,29.71,NNW,336,8.0,13.0,70,0.00,,,0.00,0.0,meteohub,2013-03-02 02:10:00,
2013-03-01 21:15:00,39.9,30.9,29.71,NW,307,9.0,13.0,70,0.00,,,0.00,0.0,meteohub,2013-03-02 02:15:00,
2013-03-01 21:20:00,39.9,30.9,29.71,NW,316,6.0,13.0,70,0.00,,,0.00,0.0,meteohub,2013-03-02 02:20:00,
2013-03-01 21:25:00,39.7,31.1,29.71,NNW,329,4.0,13.0,71,0.00,,,0.00,0.0,meteohub,2013-03-02 02:25:00,
2013-03-01 21:30:00,39.7,30.7,29.71,NW,323,9.0,13.0,70,0.00,,,0.00,0.0,meteohub,2013-03-02 02:30:00,
2013-03-01 21:36:00,39.7,31.1,29.72,NNW,334,4.0,15.0,71,0.00,,,0.00,0.0,meteohub,2013-03-02 02:36:00,
2013-03-01 21:41:00,39.7,31.1,29.72,WNW,295,11.0,15.0,71,0.00,,,0.00,0.0,meteohub,2013-03-02 02:41:00,
2013-03-01 21:46:00,39.6,30.9,29.72,NNW,333,9.0,14.0,71,0.00,,,0.00,0.0,meteohub,2013-03-02 02:46:00,
2013-03-01 21:51:00,39.6,31.3,29.72,NW,307,4.0,14.0,72,0.00,,,0.00,0.0,meteohub,2013-03-02 02:51:00,
2013-03-01 21:56:00,39.6,31.3,29.71,NW,314,4.0,14.0,72,0.00,,,0.00,0.0,meteohub,2013-03-02 02:56:00,
2013-03-01 22:01:00,39.6,31.3,29.71,NNW,329,8.0,13.0,72,0.00,,,0.00,0.0,meteohub,2013-03-02 03:01:00,
2013-03-01 22:06:00,39.4,31.1,29.72,WNW,295,8.0,13.0,72,0.00,,,0.00,0.0,meteohub,2013-03-02 03:06:00,
2013-03-01 22:12:00,39.2,30.9,29.72,NNW,328,7.0,14.0,72,0.00,,,0.00,0.0,meteohub,2013-03-02 03:12:00,
2013-03-01 22:17:00,39.2,30.9,29.72,NNW,330,9.0,18.0,72,0.00,,,0.00,0.0,meteohub,2013-03-02 03:17:00,
2013-03-01 22:22:00,39.0,31.1,29.72,WNW,302,4.0,18.0,73,0.00,,,0.00,0.0,meteohub,2013-03-02 03:22:00,
2013-03-01 22:27:00,39.0,31.1,29.72,WNW,301,8.0,12.0,73,0.00,,,0.00,0.0,meteohub,2013-03-02 03:27:00,
2013-03-01 22:32:00,39.0,31.1,29.72,NW,313,5.0,12.0,73,0.00,,,0.00,0.0,meteohub,2013-03-02 03:32:00,
2013-03-01 22:37:00,39.0,31.1,29.72,WNW,283,8.0,13.0,73,0.00,,,0.00,0.0,meteohub,2013-03-02 03:37:00,
2013-03-01 22:42:00,38.8,30.9,29.72,NNW,327,5.0,13.0,73,0.00,,,0.00,0.0,meteohub,2013-03-02 03:42:00,
2013-03-01 22:47:00,38.8,31.3,29.72,WNW,302,14.0,14.0,74,0.00,,,0.00,0.0,meteohub,2013-03-02 03:47:00,
2013-03-01 22:52:00,38.7,31.1,29.72,NNW,327,9.0,18.0,74,0.00,,,0.00,0.0,meteohub,2013-03-02 03:52:00,
2013-03-01 22:57:00,38.7,31.1,29.72,NW,310,7.0,18.0,74,0.00,,,0.00,0.0,meteohub,2013-03-02 03:57:00,
2013-03-01 23:02:00,38.7,31.1,29.72,NW,306,7.0,18.0,74,0.00,,,0.00,0.0,meteohub,2013-03-02 04:02:00,
2013-03-01 23:07:00,38.5,30.9,29.72,NW,315,5.0,15.0,74,0.00,,,0.00,0.0,meteohub,2013-03-02 04:07:00,
2013-03-01 23:12:00,38.3,30.7,29.72,WNW,302,12.0,16.0,74,0.00,,,0.00,0.0,meteohub,2013-03-02 04:12:00,
2013-03-01 23:17:00,38.3,30.7,29.72,NNW,345,10.0,16.0,74,0.00,,,0.00,0.0,meteohub,2013-03-02 04:17:00,
2013-03-01 23:22:00,38.1,30.6,29.72,NNW,338,9.0,16.0,74,0.00,,,0.00,0.0,meteohub,2013-03-02 04:22:00,
2013-03-01 23:28:00,38.1,30.6,29.72,NW,313,7.0,15.0,74,0.00,,,0.00,0.0,meteohub,2013-03-02 04:28:00,
2013-03-01 23:33:00,38.1,30.6,29.72,NNW,338,6.0,15.0,74,0.00,,,0.00,0.0,meteohub,2013-03-02 04:33:00,
2013-03-01 23:38:00,38.1,30.6,29.72,WNW,292,6.0,15.0,74,0.00,,,0.00,0.0,meteohub,2013-03-02 04:38:00,
2013-03-01 23:43:00,37.9,30.0,29.72,NW,323,6.0,16.0,73,0.00,,,0.00,0.0,meteohub,2013-03-02 04:43:00,
2013-03-01 23:48:00,37.9,30.0,29.72,NNW,327,8.0,16.0,73,0.00,,,0.00,0.0,meteohub,2013-03-02 04:48:00,
2013-03-01 23:54:00,37.9,30.0,29.72,North,350,4.0,16.0,73,0.00,,,0.00,0.0,meteohub,2013-03-02 04:54:00,
2013-03-01 23:59:00,37.9,30.0,29.72,NW,320,9.0,14.0,73,0.00,,,0.00,0.0,meteohub,2013-03-02 04:59:00,